Great Falls, MT

5:27 PM MDT on August 28, 2014 (GMT -0600)
Spicer's | Change Station
CLOSE
Current Station
Personal Weather Station
Location: Great Falls, MT
Elevation: 3323 ft
Nearby Weather Stations

Elev 3323 ft 47.51 °N, 111.32 °W | Updated 3 seconds ago

Partly Cloudy
Partly Cloudy
90.5 °F
Feels Like 87 °F
N
4.0
Wind Variable Wind from West
Gusts 5.0 mph

Today
High -- | Low -- °F
--% Chance of Precip.
Yesterday
High -- | Low -- °F
Precip. -- in
6:38 AM 8:13 PM
Waxing Crescent, 10% visible
Pressure 29.80 in
Visibility 10.0 miles
Clouds Few 10000 ft
Heat Index 87 °F
Dew Point 46 °F
Humidity 22%
Rainfall 0.00 in
Snow Depth Not available.
UV 3 out of 12
Pollen 8.90 out of 12
Air Quality Not available.
Flu Activity Not available.
METAR KGTF 282253Z 25017G23KT 10SM FEW100 29/05 A2989 RMK AO2 PK WND 24026/2208 SLP089 T02940050

More Conditions Fewer Conditions

Pressure 29.80 in
Visibility 10.0 miles
Clouds Few 10000 ft
Heat Index 87 °F
Dew Point 46 °F
Humidity 22%
Rainfall 0.00 in
Snow Depth Not available.
UV 3 out of 12
Pollen 8.90 out of 12
Air Quality Not available.
Flu Activity Not available.
METAR KGTF 282253Z 25017G23KT 10SM FEW100 29/05 A2989 RMK AO2 PK WND 24026/2208 SLP089 T02940050

More Conditions Fewer Conditions

10-Day Weather Forecast

Almanac

Astronomy

Aug. 28, 2014 Rise Set
Actual Time 6:38 AM MDT 8:13 PM MDT
Civil Twilight 6:06 AM MDT 8:45 PM MDT
Nautical Twilight 5:27 AM MDT 9:24 PM MDT
Astronomical Twilight 4:44 AM MDT 10:06 PM MDT
Moon 9:50 AM MDT 9:22 PM MDT
Length of Visible Light 14h 38m
Length of Day
13h 34m
Tomorrow will be 3m 16s shorter.
Waxing Crescent, 10% of the Moon is Illuminated
Today
Waxing Crescent
Sep 2
First Quarter
Sep 8
Full
Sep 15
Last Quarter
Sep 24
New

Today's Extremes

State Highs State Lows

Community

WunderPhotos

Upload Photos

1,748,104 photos uploaded!

Nearby

Snow Depth

Station Depth Elevation
Wood Creek 0 in 5960 ft
Waldron 0 in 5600 ft
Dupuyer Creek 0 in 5750 ft
Lubrecht Flume 0 in 4680 ft
Kraft Creek 0 in 4750 ft

Earthquake Activity

City Distance Mag. Time & Date
No recent earthquake activity has been reported nearby.
Minimum magnitude displayed is 2.5.

Coastal Water Temperatures

Place Temperature
No Stations Reporting

Nearby Weather Stations